DFSCM EDDS-EDDG
Flight info
| Callsign | DFSCM |
|---|---|
| Flight time | N/A |
| Altitude | 23000 |
| Route | TAGIK4B/25 TAGIK Z3 ABUMO N850 GISEM Z505 ARPEG Z850 HMM |
| Aircraft | SF50/L-SDGRWY/L |
Departure
| Time | N/A |
|---|---|
| Airport | Stuttgart Airport (EDDS) |
Arrival
| Time | 2026-04-20 15:51 |
|---|---|
| Airport | Münster Osnabrück Airport (EDDG) |
| Time | Latitude | Longitude | Altitude | Speed | Heading |
|---|---|---|---|---|---|
| 2026-04-20 15:04 | 49.31686 | 8.96650 | 20733 ft | 249 kts | 358° |
| 2026-04-20 15:04 | 49.33041 | 8.96840 | 20977 ft | 249 kts | 358° |
| 2026-04-20 15:05 | 49.34770 | 8.97084 | 21293 ft | 248 kts | 358° |
| 2026-04-20 15:05 | 49.36489 | 8.97324 | 21614 ft | 248 kts | 358° |
| 2026-04-20 15:05 | 49.38202 | 8.97564 | 21935 ft | 247 kts | 358° |
| 2026-04-20 15:05 | 49.39908 | 8.97806 | 22261 ft | 245 kts | 358° |
| 2026-04-20 15:06 | 49.41606 | 8.98043 | 22591 ft | 244 kts | 358° |
| 2026-04-20 15:06 | 49.43296 | 8.98280 | 22927 ft | 243 kts | 358° |
| 2026-04-20 15:06 | 49.44894 | 8.98501 | 23032 ft | 250 kts | 358° |
| 2026-04-20 15:06 | 49.46671 | 8.98752 | 23037 ft | 260 kts | 358° |
| 2026-04-20 15:07 | 49.48501 | 8.99008 | 23046 ft | 267 kts | 359° |
| 2026-04-20 15:07 | 49.50374 | 8.99269 | 23041 ft | 273 kts | 359° |
| 2026-04-20 15:07 | 49.52283 | 8.99538 | 23043 ft | 277 kts | 359° |
| 2026-04-20 15:07 | 49.54216 | 8.99805 | 23045 ft | 281 kts | 359° |
| 2026-04-20 15:08 | 49.56176 | 9.00073 | 23042 ft | 285 kts | 360° |
| 2026-04-20 15:08 | 49.58161 | 9.00347 | 23038 ft | 289 kts | 360° |
| 2026-04-20 15:08 | 49.60174 | 9.00627 | 23038 ft | 292 kts | 0° |
| 2026-04-20 15:08 | 49.62213 | 9.00909 | 23042 ft | 295 kts | 0° |
| 2026-04-20 15:09 | 49.64269 | 9.01201 | 23042 ft | 298 kts | 1° |
| 2026-04-20 15:09 | 49.66321 | 9.01500 | 23046 ft | 301 kts | 1° |
| 2026-04-20 15:09 | 49.68411 | 9.01802 | 23039 ft | 303 kts | 1° |
| 2026-04-20 15:09 | 49.70515 | 9.02106 | 23055 ft | 304 kts | 1° |
| 2026-04-20 15:10 | 49.72619 | 9.02409 | 23107 ft | 304 kts | 1° |
| 2026-04-20 15:10 | 49.74734 | 9.02715 | 23106 ft | 306 kts | 2° |
| 2026-04-20 15:10 | 49.76860 | 9.03023 | 23108 ft | 307 kts | 2° |
| 2026-04-20 15:10 | 49.78995 | 9.03331 | 23108 ft | 309 kts | 2° |
| 2026-04-20 15:11 | 49.81139 | 9.03640 | 23114 ft | 310 kts | 2° |
| 2026-04-20 15:11 | 49.83285 | 9.03948 | 23116 ft | 311 kts | 3° |
| 2026-04-20 15:11 | 49.85428 | 9.04260 | 23117 ft | 307 kts | 3° |
| 2026-04-20 15:11 | 49.87547 | 9.04569 | 23118 ft | 305 kts | 3° |
| 2026-04-20 15:12 | 49.89652 | 9.04872 | 23114 ft | 304 kts | 3° |
| 2026-04-20 15:12 | 49.91759 | 9.04986 | 23108 ft | 301 kts | 354° |
| 2026-04-20 15:12 | 49.93810 | 9.04379 | 23109 ft | 300 kts | 342° |
| 2026-04-20 15:12 | 49.95756 | 9.03246 | 23106 ft | 298 kts | 338° |
| 2026-04-20 15:13 | 49.97696 | 9.02095 | 23114 ft | 298 kts | 339° |
| 2026-04-20 15:13 | 49.99636 | 9.00963 | 23110 ft | 298 kts | 339° |
| 2026-04-20 15:13 | 50.01574 | 8.99815 | 23108 ft | 297 kts | 339° |
| 2026-04-20 15:13 | 50.03502 | 8.98665 | 23109 ft | 296 kts | 339° |
| 2026-04-20 15:14 | 50.05421 | 8.97525 | 23112 ft | 295 kts | 339° |
| 2026-04-20 15:14 | 50.07326 | 8.96393 | 23112 ft | 297 kts | 339° |
| 2026-04-20 15:14 | 50.09261 | 8.95241 | 23111 ft | 299 kts | 339° |
| 2026-04-20 15:14 | 50.11211 | 8.94081 | 23117 ft | 301 kts | 339° |
| 2026-04-20 15:15 | 50.13175 | 8.92913 | 23113 ft | 303 kts | 340° |
| 2026-04-20 15:15 | 50.15204 | 8.92083 | 23107 ft | 303 kts | 352° |
| 2026-04-20 15:15 | 50.17305 | 8.91681 | 23114 ft | 304 kts | 353° |
| 2026-04-20 15:15 | 50.19405 | 8.91234 | 23120 ft | 306 kts | 352° |
| 2026-04-20 15:16 | 50.21519 | 8.90768 | 23118 ft | 307 kts | 353° |
| 2026-04-20 15:16 | 50.23640 | 8.90322 | 23118 ft | 308 kts | 353° |
| 2026-04-20 15:16 | 50.25769 | 8.89882 | 23116 ft | 309 kts | 353° |
| 2026-04-20 15:16 | 50.27904 | 8.89435 | 23117 ft | 310 kts | 354° |
| 2026-04-20 15:17 | 50.30043 | 8.88985 | 23119 ft | 311 kts | 354° |
| 2026-04-20 15:17 | 50.32196 | 8.88537 | 23114 ft | 312 kts | 354° |
| 2026-04-20 15:17 | 50.34352 | 8.88086 | 23114 ft | 313 kts | 354° |
| 2026-04-20 15:17 | 50.36516 | 8.87635 | 23116 ft | 314 kts | 354° |
| 2026-04-20 15:18 | 50.38686 | 8.87180 | 23119 ft | 315 kts | 354° |
| 2026-04-20 15:18 | 50.40861 | 8.86723 | 23119 ft | 315 kts | 354° |
| 2026-04-20 15:18 | 50.43015 | 8.86269 | 23118 ft | 316 kts | 354° |
| 2026-04-20 15:18 | 50.45196 | 8.85811 | 23120 ft | 317 kts | 355° |
| 2026-04-20 15:19 | 50.47372 | 8.85353 | 23118 ft | 318 kts | 355° |
| 2026-04-20 15:19 | 50.49584 | 8.84887 | 23123 ft | 319 kts | 355° |
| 2026-04-20 15:19 | 50.51783 | 8.84424 | 23125 ft | 319 kts | 355° |
| 2026-04-20 15:19 | 50.53979 | 8.83959 | 23123 ft | 319 kts | 355° |
| 2026-04-20 15:20 | 50.56173 | 8.83494 | 23124 ft | 319 kts | 355° |
| 2026-04-20 15:20 | 50.58378 | 8.83019 | 23122 ft | 319 kts | 355° |
| 2026-04-20 15:20 | 50.60568 | 8.82528 | 23120 ft | 320 kts | 354° |
| 2026-04-20 15:20 | 50.62780 | 8.82013 | 23123 ft | 320 kts | 354° |
| 2026-04-20 15:21 | 50.64985 | 8.81479 | 23126 ft | 320 kts | 354° |
| 2026-04-20 15:21 | 50.67190 | 8.80927 | 23121 ft | 320 kts | 354° |
| 2026-04-20 15:21 | 50.69391 | 8.80356 | 23127 ft | 321 kts | 353° |
| 2026-04-20 15:21 | 50.71594 | 8.79766 | 23126 ft | 321 kts | 353° |
| 2026-04-20 15:22 | 50.73771 | 8.79167 | 23123 ft | 322 kts | 353° |
| 2026-04-20 15:22 | 50.75978 | 8.78545 | 23126 ft | 322 kts | 353° |
| 2026-04-20 15:22 | 50.78183 | 8.77910 | 23126 ft | 322 kts | 353° |
| 2026-04-20 15:22 | 50.80384 | 8.77264 | 23124 ft | 322 kts | 352° |
| 2026-04-20 15:23 | 50.82582 | 8.76606 | 23126 ft | 322 kts | 352° |
| 2026-04-20 15:23 | 50.84778 | 8.75935 | 23125 ft | 321 kts | 352° |
| 2026-04-20 15:23 | 50.86977 | 8.75248 | 23127 ft | 322 kts | 352° |
| 2026-04-20 15:23 | 50.89169 | 8.74551 | 23127 ft | 322 kts | 352° |
| 2026-04-20 15:24 | 50.91349 | 8.73847 | 22861 ft | 316 kts | 351° |
| 2026-04-20 15:24 | 50.93483 | 8.73143 | 22530 ft | 311 kts | 351° |
| 2026-04-20 15:24 | 50.95588 | 8.72431 | 22192 ft | 308 kts | 351° |
| 2026-04-20 15:24 | 50.97686 | 8.71708 | 21873 ft | 308 kts | 351° |
| 2026-04-20 15:25 | 50.99784 | 8.70972 | 21555 ft | 309 kts | 351° |
| 2026-04-20 15:25 | 51.01858 | 8.70064 | 21223 ft | 313 kts | 340° |
| 2026-04-20 15:25 | 51.03721 | 8.68254 | 20907 ft | 316 kts | 326° |
| 2026-04-20 15:25 | 51.05467 | 8.66128 | 20603 ft | 316 kts | 323° |
| 2026-04-20 15:26 | 51.07187 | 8.63953 | 20293 ft | 316 kts | 323° |
| 2026-04-20 15:26 | 51.08905 | 8.61768 | 19994 ft | 316 kts | 323° |
| 2026-04-20 15:26 | 51.10622 | 8.59575 | 19690 ft | 317 kts | 323° |
| 2026-04-20 15:26 | 51.12338 | 8.57380 | 19334 ft | 317 kts | 323° |
| 2026-04-20 15:27 | 51.14049 | 8.55191 | 18616 ft | 319 kts | 323° |
| 2026-04-20 15:27 | 51.15769 | 8.52982 | 17815 ft | 316 kts | 324° |
| 2026-04-20 15:27 | 51.17470 | 8.50783 | 17013 ft | 313 kts | 323° |
| 2026-04-20 15:27 | 51.19153 | 8.48598 | 16225 ft | 312 kts | 323° |
| 2026-04-20 15:28 | 51.20825 | 8.46418 | 15465 ft | 309 kts | 323° |
| 2026-04-20 15:28 | 51.22483 | 8.44249 | 14719 ft | 307 kts | 323° |
| 2026-04-20 15:28 | 51.24125 | 8.42098 | 13992 ft | 302 kts | 324° |
| 2026-04-20 15:28 | 51.25732 | 8.39982 | 13182 ft | 296 kts | 323° |
| 2026-04-20 15:29 | 51.27312 | 8.37903 | 12383 ft | 292 kts | 323° |
| 2026-04-20 15:29 | 51.28879 | 8.35857 | 11608 ft | 288 kts | 323° |
| 2026-04-20 15:29 | 51.30424 | 8.33861 | 10853 ft | 283 kts | 323° |
| 2026-04-20 15:29 | 51.31953 | 8.31899 | 10115 ft | 279 kts | 322° |
| 2026-04-20 15:30 | 51.33459 | 8.29986 | 9311 ft | 273 kts | 323° |
| 2026-04-20 15:30 | 51.34910 | 8.28148 | 8524 ft | 266 kts | 323° |
| 2026-04-20 15:30 | 51.36347 | 8.26333 | 7748 ft | 260 kts | 323° |
| 2026-04-20 15:30 | 51.37762 | 8.24571 | 7210 ft | 255 kts | 323° |
| 2026-04-20 15:31 | 51.39168 | 8.22848 | 6839 ft | 254 kts | 323° |
| 2026-04-20 15:31 | 51.40578 | 8.21131 | 6457 ft | 254 kts | 323° |
| 2026-04-20 15:31 | 51.41983 | 8.19427 | 6064 ft | 252 kts | 323° |
| 2026-04-20 15:31 | 51.43383 | 8.17739 | 5667 ft | 251 kts | 323° |
| 2026-04-20 15:32 | 51.44772 | 8.16071 | 5283 ft | 249 kts | 323° |
| 2026-04-20 15:32 | 51.46157 | 8.14411 | 4896 ft | 248 kts | 323° |
| 2026-04-20 15:32 | 51.47069 | 8.13315 | 4630 ft | 247 kts | 323° |
| 2026-04-20 15:32 | 51.48441 | 8.11660 | 4241 ft | 246 kts | 323° |
| 2026-04-20 15:33 | 51.50232 | 8.09481 | 4084 ft | 243 kts | 323° |
| 2026-04-20 15:33 | 51.51587 | 8.07837 | 4084 ft | 245 kts | 324° |
| 2026-04-20 15:33 | 51.53007 | 8.06329 | 4085 ft | 245 kts | 328° |
| 2026-04-20 15:33 | 51.53985 | 8.05341 | 4085 ft | 246 kts | 328° |
| 2026-04-20 15:34 | 51.55437 | 8.03885 | 4096 ft | 246 kts | 328° |
| 2026-04-20 15:34 | 51.56897 | 8.02435 | 4096 ft | 246 kts | 328° |
| 2026-04-20 15:34 | 51.58326 | 8.01000 | 4089 ft | 247 kts | 328° |
| 2026-04-20 15:34 | 51.59776 | 7.99515 | 4083 ft | 247 kts | 328° |
| 2026-04-20 15:35 | 51.61228 | 7.98053 | 4077 ft | 246 kts | 328° |
| 2026-04-20 15:35 | 51.62684 | 7.96594 | 4081 ft | 247 kts | 328° |
| 2026-04-20 15:35 | 51.64141 | 7.95132 | 4088 ft | 248 kts | 328° |
| 2026-04-20 15:35 | 51.65604 | 7.93651 | 4082 ft | 247 kts | 328° |
| 2026-04-20 15:36 | 51.67053 | 7.92177 | 4075 ft | 245 kts | 328° |
| 2026-04-20 15:36 | 51.68499 | 7.90701 | 4081 ft | 246 kts | 328° |
| 2026-04-20 15:36 | 51.69942 | 7.89208 | 4079 ft | 247 kts | 327° |
| 2026-04-20 15:36 | 51.71368 | 7.87653 | 4084 ft | 248 kts | 326° |
| 2026-04-20 15:37 | 51.72769 | 7.86035 | 4083 ft | 248 kts | 324° |
| 2026-04-20 15:37 | 51.74126 | 7.84375 | 4086 ft | 248 kts | 323° |
| 2026-04-20 15:37 | 51.75474 | 7.82636 | 4086 ft | 247 kts | 321° |
| 2026-04-20 15:37 | 51.76722 | 7.80938 | 4084 ft | 214 kts | 320° |
| 2026-04-20 15:38 | 51.77702 | 7.79508 | 4079 ft | 168 kts | 318° |
| 2026-04-20 15:38 | 51.78536 | 7.78479 | 4080 ft | 140 kts | 333° |
| 2026-04-20 15:38 | 51.79377 | 7.77799 | 4081 ft | 132 kts | 333° |
| 2026-04-20 15:38 | 51.80185 | 7.77124 | 4087 ft | 131 kts | 333° |
| 2026-04-20 15:39 | 51.80993 | 7.76447 | 4087 ft | 131 kts | 333° |
| 2026-04-20 15:39 | 51.81799 | 7.75770 | 4087 ft | 130 kts | 333° |
| 2026-04-20 15:39 | 51.82597 | 7.75035 | 4033 ft | 134 kts | 327° |
| 2026-04-20 15:39 | 51.83289 | 7.74030 | 4025 ft | 135 kts | 311° |
| 2026-04-20 15:40 | 51.83694 | 7.72633 | 3928 ft | 143 kts | 290° |
| 2026-04-20 15:40 | 51.84245 | 7.71297 | 3671 ft | 149 kts | 327° |
| 2026-04-20 15:40 | 51.85245 | 7.70768 | 3431 ft | 155 kts | 348° |
| 2026-04-20 15:40 | 51.86320 | 7.70385 | 3178 ft | 161 kts | 347° |
| 2026-04-20 15:41 | 51.87420 | 7.69960 | 2915 ft | 164 kts | 347° |
| 2026-04-20 15:41 | 51.88535 | 7.69511 | 2658 ft | 165 kts | 347° |
| 2026-04-20 15:41 | 51.89639 | 7.69053 | 2399 ft | 166 kts | 347° |
| 2026-04-20 15:41 | 51.90774 | 7.68745 | 2208 ft | 163 kts | 356° |
| 2026-04-20 15:42 | 51.91866 | 7.68590 | 2208 ft | 153 kts | 356° |
| 2026-04-20 15:42 | 51.92903 | 7.68445 | 2199 ft | 146 kts | 356° |
| 2026-04-20 15:42 | 51.93895 | 7.68297 | 2201 ft | 141 kts | 356° |
| 2026-04-20 15:42 | 51.94856 | 7.68157 | 2200 ft | 137 kts | 356° |
| 2026-04-20 15:43 | 51.95801 | 7.68011 | 2201 ft | 135 kts | 356° |
| 2026-04-20 15:43 | 51.96730 | 7.67867 | 2203 ft | 133 kts | 356° |
| 2026-04-20 15:43 | 51.97653 | 7.67722 | 2200 ft | 133 kts | 356° |
| 2026-04-20 15:43 | 51.98573 | 7.67570 | 2203 ft | 133 kts | 356° |
| 2026-04-20 15:44 | 51.99497 | 7.67436 | 2204 ft | 133 kts | 356° |
| 2026-04-20 15:44 | 52.00413 | 7.67282 | 2202 ft | 132 kts | 356° |
| 2026-04-20 15:44 | 52.01324 | 7.67144 | 2206 ft | 131 kts | 360° |
| 2026-04-20 15:44 | 52.02228 | 7.67198 | 2206 ft | 130 kts | 4° |
| 2026-04-20 15:45 | 52.03138 | 7.67280 | 2208 ft | 131 kts | 4° |
| 2026-04-20 15:45 | 52.04049 | 7.67366 | 2210 ft | 131 kts | 4° |
| 2026-04-20 15:45 | 52.04958 | 7.67445 | 2209 ft | 130 kts | 4° |
| 2026-04-20 15:45 | 52.05782 | 7.67516 | 2204 ft | 130 kts | 5° |
| 2026-04-20 15:46 | 52.06685 | 7.67591 | 2204 ft | 130 kts | 4° |
| 2026-04-20 15:46 | 52.07580 | 7.67672 | 2207 ft | 130 kts | 4° |
| 2026-04-20 15:46 | 52.08487 | 7.67756 | 2206 ft | 131 kts | 4° |
| 2026-04-20 15:46 | 52.09400 | 7.67836 | 2206 ft | 132 kts | 5° |
| 2026-04-20 15:47 | 52.10319 | 7.67929 | 2208 ft | 131 kts | 11° |
| 2026-04-20 15:47 | 52.11060 | 7.68771 | 2038 ft | 138 kts | 55° |
| 2026-04-20 15:47 | 52.11303 | 7.70119 | 1609 ft | 115 kts | 73° |
| 2026-04-20 15:47 | 52.11533 | 7.71317 | 1203 ft | 105 kts | 66° |
| 2026-04-20 15:48 | 52.11728 | 7.72300 | 1195 ft | 80 kts | 67° |
| 2026-04-20 15:48 | 52.11860 | 7.73093 | 1134 ft | 67 kts | 67° |
| 2026-04-20 15:48 | 52.11975 | 7.73802 | 1008 ft | 62 kts | 66° |
| 2026-04-20 15:48 | 52.12078 | 7.74494 | 868 ft | 74 kts | 69° |
| 2026-04-20 15:49 | 52.12258 | 7.75290 | 986 ft | 82 kts | 47° |
| 2026-04-20 15:49 | 52.12760 | 7.75378 | 1129 ft | 76 kts | 350° |
| 2026-04-20 15:49 | 52.13318 | 7.75158 | 1017 ft | 90 kts | 351° |
| 2026-04-20 15:49 | 52.13947 | 7.74993 | 1005 ft | 93 kts | 354° |
| 2026-04-20 15:50 | 52.14595 | 7.74841 | 976 ft | 94 kts | 343° |
| 2026-04-20 15:50 | 52.14624 | 7.73809 | 840 ft | 113 kts | 242° |
| 2026-04-20 15:50 | 52.14335 | 7.72726 | 709 ft | 99 kts | 258° |
| 2026-04-20 15:50 | 52.14130 | 7.71628 | 508 ft | 100 kts | 258° |
| 2026-04-20 15:51 | 52.13908 | 7.70591 | 324 ft | 94 kts | 260° |
| 2026-04-20 15:51 | 52.13695 | 7.69610 | 176 ft | 85 kts | 257° |
| 2026-04-20 15:51 | 52.13546 | 7.68864 | 161 ft | 49 kts | 253° |
| 2026-04-20 15:51 | 52.13459 | 7.68434 | 162 ft | 28 kts | 251° |
| 2026-04-20 15:52 | 52.13385 | 7.68263 | 163 ft | 13 kts | 188° |
| 2026-04-20 15:52 | 52.13306 | 7.68293 | 161 ft | 11 kts | 162° |
| 2026-04-20 15:52 | 52.13215 | 7.68342 | 161 ft | 12 kts | 161° |
| 2026-04-20 15:53 | 52.13153 | 7.68324 | 161 ft | 0 kts | 89° |